sensor_id;sensor_type;location;lat;lon;timestamp;temperature;humidity
46159;DHT22;31888;44.512;26.104;2023-09-07T00:00:31;18.60;80.90
46159;DHT22;31888;44.512;26.104;2023-09-07T00:02:55;18.60;80.80
46159;DHT22;31888;44.512;26.104;2023-09-07T00:05:19;18.60;80.90
46159;DHT22;31888;44.512;26.104;2023-09-07T00:07:43;18.60;81.00
46159;DHT22;31888;44.512;26.104;2023-09-07T00:10:10;18.60;81.20
46159;DHT22;31888;44.512;26.104;2023-09-07T00:12:34;18.70;81.00
46159;DHT22;31888;44.512;26.104;2023-09-07T00:15:02;18.60;81.00
46159;DHT22;31888;44.512;26.104;2023-09-07T00:17:28;18.70;81.10
46159;DHT22;31888;44.512;26.104;2023-09-07T00:19:52;18.70;81.10
46159;DHT22;31888;44.512;26.104;2023-09-07T00:22:17;18.70;81.20
46159;DHT22;31888;44.512;26.104;2023-09-07T00:24:41;18.60;81.20
46159;DHT22;31888;44.512;26.104;2023-09-07T00:27:06;18.60;81.20
46159;DHT22;31888;44.512;26.104;2023-09-07T00:29:30;18.60;81.40
46159;DHT22;31888;44.512;26.104;2023-09-07T00:31:54;18.50;81.60
46159;DHT22;31888;44.512;26.104;2023-09-07T00:34:18;18.40;81.80
46159;DHT22;31888;44.512;26.104;2023-09-07T00:36:41;18.50;81.80
46159;DHT22;31888;44.512;26.104;2023-09-07T00:39:05;18.50;82.00
46159;DHT22;31888;44.512;26.104;2023-09-07T00:41:29;18.40;82.10
46159;DHT22;31888;44.512;26.104;2023-09-07T00:43:55;18.40;82.30
46159;DHT22;31888;44.512;26.104;2023-09-07T00:46:19;18.50;82.30
46159;DHT22;31888;44.512;26.104;2023-09-07T00:48:44;18.40;82.30
46159;DHT22;31888;44.512;26.104;2023-09-07T00:51:23;18.40;82.40
46159;DHT22;31888;44.512;26.104;2023-09-07T00:53:47;18.40;82.40
46159;DHT22;31888;44.512;26.104;2023-09-07T00:56:12;18.40;82.50
46159;DHT22;31888;44.512;26.104;2023-09-07T00:58:36;18.30;82.50
46159;DHT22;31888;44.512;26.104;2023-09-07T01:01:03;18.40;82.70
46159;DHT22;31888;44.512;26.104;2023-09-07T01:03:27;18.40;82.70
46159;DHT22;31888;44.512;26.104;2023-09-07T01:05:57;18.40;82.60
46159;DHT22;31888;44.512;26.104;2023-09-07T01:08:23;18.40;82.80
46159;DHT22;31888;44.512;26.104;2023-09-07T01:10:48;18.30;83.00
46159;DHT22;31888;44.512;26.104;2023-09-07T01:13:12;18.30;83.10
46159;DHT22;31888;44.512;26.104;2023-09-07T01:15:37;18.30;83.10
46159;DHT22;31888;44.512;26.104;2023-09-07T01:18:03;18.30;83.00
46159;DHT22;31888;44.512;26.104;2023-09-07T01:20:47;18.30;83.20
46159;DHT22;31888;44.512;26.104;2023-09-07T01:23:19;18.30;83.30
46159;DHT22;31888;44.512;26.104;2023-09-07T01:25:43;18.30;83.30
46159;DHT22;31888;44.512;26.104;2023-09-07T01:28:08;18.30;83.50
46159;DHT22;31888;44.512;26.104;2023-09-07T01:30:35;18.30;83.70
46159;DHT22;31888;44.512;26.104;2023-09-07T01:32:59;18.20;84.00
46159;DHT22;31888;44.512;26.104;2023-09-07T01:35:23;18.20;84.10
46159;DHT22;31888;44.512;26.104;2023-09-07T01:37:48;18.20;84.20
46159;DHT22;31888;44.512;26.104;2023-09-07T01:40:13;18.20;84.30
46159;DHT22;31888;44.512;26.104;2023-09-07T01:42:37;18.20;84.40
46159;DHT22;31888;44.512;26.104;2023-09-07T01:45:01;18.20;84.20
46159;DHT22;31888;44.512;26.104;2023-09-07T01:47:25;18.10;84.50
46159;DHT22;31888;44.512;26.104;2023-09-07T01:49:50;18.10;84.60
46159;DHT22;31888;44.512;26.104;2023-09-07T01:52:14;18.10;84.70
46159;DHT22;31888;44.512;26.104;2023-09-07T01:54:40;18.10;84.40
46159;DHT22;31888;44.512;26.104;2023-09-07T01:57:06;18.10;84.80
46159;DHT22;31888;44.512;26.104;2023-09-07T01:59:30;18.00;84.70
46159;DHT22;31888;44.512;26.104;2023-09-07T02:01:54;18.00;84.90
46159;DHT22;31888;44.512;26.104;2023-09-07T02:04:18;18.10;85.00
46159;DHT22;31888;44.512;26.104;2023-09-07T02:06:42;18.10;85.00
46159;DHT22;31888;44.512;26.104;2023-09-07T02:09:06;18.00;85.30
46159;DHT22;31888;44.512;26.104;2023-09-07T02:11:31;18.00;85.40
46159;DHT22;31888;44.512;26.104;2023-09-07T02:13:57;18.00;85.60
46159;DHT22;31888;44.512;26.104;2023-09-07T02:16:21;17.90;85.70
46159;DHT22;31888;44.512;26.104;2023-09-07T02:18:45;17.90;85.90
46159;DHT22;31888;44.512;26.104;2023-09-07T02:21:11;17.70;86.50
46159;DHT22;31888;44.512;26.104;2023-09-07T02:23:36;17.70;86.70
46159;DHT22;31888;44.512;26.104;2023-09-07T02:26:00;17.70;86.80
46159;DHT22;31888;44.512;26.104;2023-09-07T02:28:24;17.70;86.90
46159;DHT22;31888;44.512;26.104;2023-09-07T02:30:50;17.70;87.10
46159;DHT22;31888;44.512;26.104;2023-09-07T02:33:14;17.70;87.10
46159;DHT22;31888;44.512;26.104;2023-09-07T02:35:38;17.70;87.10
46159;DHT22;31888;44.512;26.104;2023-09-07T02:38:02;17.70;87.30
46159;DHT22;31888;44.512;26.104;2023-09-07T02:40:26;17.60;87.50
46159;DHT22;31888;44.512;26.104;2023-09-07T02:42:50;17.60;87.60
46159;DHT22;31888;44.512;26.104;2023-09-07T02:45:14;17.50;87.70
46159;DHT22;31888;44.512;26.104;2023-09-07T02:47:40;17.50;87.80
46159;DHT22;31888;44.512;26.104;2023-09-07T02:50:05;17.50;87.90
46159;DHT22;31888;44.512;26.104;2023-09-07T02:52:29;17.50;88.00
46159;DHT22;31888;44.512;26.104;2023-09-07T02:54:53;17.50;87.80
46159;DHT22;31888;44.512;26.104;2023-09-07T02:57:17;17.50;88.00
46159;DHT22;31888;44.512;26.104;2023-09-07T02:59:41;17.50;87.90
46159;DHT22;31888;44.512;26.104;2023-09-07T03:02:08;17.50;88.10
46159;DHT22;31888;44.512;26.104;2023-09-07T03:04:34;17.50;88.00
46159;DHT22;31888;44.512;26.104;2023-09-07T03:07:00;17.40;88.30
46159;DHT22;31888;44.512;26.104;2023-09-07T03:09:24;17.40;88.30
46159;DHT22;31888;44.512;26.104;2023-09-07T03:11:48;17.40;88.50
46159;DHT22;31888;44.512;26.104;2023-09-07T03:14:12;17.40;88.50
46159;DHT22;31888;44.512;26.104;2023-09-07T03:16:36;17.40;88.40
46159;DHT22;31888;44.512;26.104;2023-09-07T03:19:02;17.40;88.40
46159;DHT22;31888;44.512;26.104;2023-09-07T03:21:27;17.40;88.50
46159;DHT22;31888;44.512;26.104;2023-09-07T03:23:52;17.40;88.60
46159;DHT22;31888;44.512;26.104;2023-09-07T03:26:16;17.40;88.70
46159;DHT22;31888;44.512;26.104;2023-09-07T03:28:40;17.40;88.50
46159;DHT22;31888;44.512;26.104;2023-09-07T03:31:04;17.50;88.40
46159;DHT22;31888;44.512;26.104;2023-09-07T03:33:28;17.50;88.50
46159;DHT22;31888;44.512;26.104;2023-09-07T03:35:52;17.50;88.30
46159;DHT22;31888;44.512;26.104;2023-09-07T03:38:22;17.50;88.50
46159;DHT22;31888;44.512;26.104;2023-09-07T03:40:46;17.50;88.60
46159;DHT22;31888;44.512;26.104;2023-09-07T03:43:10;17.40;88.80
46159;DHT22;31888;44.512;26.104;2023-09-07T03:45:34;17.30;89.10
46159;DHT22;31888;44.512;26.104;2023-09-07T03:47:58;17.30;89.10
46159;DHT22;31888;44.512;26.104;2023-09-07T03:50:22;17.30;89.20
46159;DHT22;31888;44.512;26.104;2023-09-07T03:52:46;17.40;89.20
46159;DHT22;31888;44.512;26.104;2023-09-07T03:55:12;17.40;89.40
46159;DHT22;31888;44.512;26.104;2023-09-07T03:57:36;17.40;89.30
46159;DHT22;31888;44.512;26.104;2023-09-07T04:00:00;17.40;89.40
46159;DHT22;31888;44.512;26.104;2023-09-07T04:02:34;17.50;89.30
46159;DHT22;31888;44.512;26.104;2023-09-07T04:04:59;17.60;88.90
46159;DHT22;31888;44.512;26.104;2023-09-07T04:07:25;17.80;88.40
46159;DHT22;31888;44.512;26.104;2023-09-07T04:09:50;17.90;88.10
46159;DHT22;31888;44.512;26.104;2023-09-07T04:12:15;18.00;87.90
46159;DHT22;31888;44.512;26.104;2023-09-07T04:14:39;18.20;87.20
46159;DHT22;31888;44.512;26.104;2023-09-07T04:17:04;18.30;86.70
46159;DHT22;31888;44.512;26.104;2023-09-07T04:19:28;18.60;85.90
46159;DHT22;31888;44.512;26.104;2023-09-07T04:21:52;18.90;85.10
46159;DHT22;31888;44.512;26.104;2023-09-07T04:24:16;19.20;84.50
46159;DHT22;31888;44.512;26.104;2023-09-07T04:26:41;19.40;83.50
46159;DHT22;31888;44.512;26.104;2023-09-07T04:29:06;19.70;82.90
46159;DHT22;31888;44.512;26.104;2023-09-07T04:31:33;20.10;82.10
46159;DHT22;31888;44.512;26.104;2023-09-07T04:33:57;20.40;80.80
46159;DHT22;31888;44.512;26.104;2023-09-07T04:36:22;20.70;79.90
46159;DHT22;31888;44.512;26.104;2023-09-07T04:38:46;21.10;79.50
46159;DHT22;31888;44.512;26.104;2023-09-07T04:41:11;21.30;78.40
46159;DHT22;31888;44.512;26.104;2023-09-07T04:43:36;21.50;78.10
46159;DHT22;31888;44.512;26.104;2023-09-07T04:46:04;21.90;77.20
46159;DHT22;31888;44.512;26.104;2023-09-07T04:48:28;22.20;76.40
46159;DHT22;31888;44.512;26.104;2023-09-07T04:50:58;22.50;75.60
46159;DHT22;31888;44.512;26.104;2023-09-07T04:53:21;22.90;74.40
46159;DHT22;31888;44.512;26.104;2023-09-07T04:55:45;23.20;74.00
46159;DHT22;31888;44.512;26.104;2023-09-07T04:58:09;23.50;73.20
46159;DHT22;31888;44.512;26.104;2023-09-07T05:00:33;23.40;73.30
46159;DHT22;31888;44.512;26.104;2023-09-07T05:02:58;23.80;72.50
46159;DHT22;31888;44.512;26.104;2023-09-07T05:05:23;24.20;71.90
46159;DHT22;31888;44.512;26.104;2023-09-07T05:07:47;24.40;71.00
46159;DHT22;31888;44.512;26.104;2023-09-07T05:10:11;24.70;70.50
46159;DHT22;31888;44.512;26.104;2023-09-07T05:12:36;24.80;69.90
46159;DHT22;31888;44.512;26.104;2023-09-07T05:15:00;24.90;69.80
46159;DHT22;31888;44.512;26.104;2023-09-07T05:17:25;25.10;69.20
46159;DHT22;31888;44.512;26.104;2023-09-07T05:19:50;25.10;69.50
46159;DHT22;31888;44.512;26.104;2023-09-07T05:22:14;25.40;68.70
46159;DHT22;31888;44.512;26.104;2023-09-07T05:24:38;25.90;67.80
46159;DHT22;31888;44.512;26.104;2023-09-07T05:27:04;25.60;68.20
46159;DHT22;31888;44.512;26.104;2023-09-07T05:29:28;26.00;67.80
46159;DHT22;31888;44.512;26.104;2023-09-07T05:31:52;26.30;67.20
46159;DHT22;31888;44.512;26.104;2023-09-07T05:34:16;26.30;66.80
46159;DHT22;31888;44.512;26.104;2023-09-07T05:36:42;26.60;66.60
46159;DHT22;31888;44.512;26.104;2023-09-07T05:39:06;26.80;66.50
46159;DHT22;31888;44.512;26.104;2023-09-07T05:41:30;27.00;65.70
46159;DHT22;31888;44.512;26.104;2023-09-07T05:43:54;27.40;65.50
46159;DHT22;31888;44.512;26.104;2023-09-07T05:46:18;27.60;64.90
46159;DHT22;31888;44.512;26.104;2023-09-07T05:48:42;27.50;65.10
46159;DHT22;31888;44.512;26.104;2023-09-07T05:51:06;27.70;64.80
46159;DHT22;31888;44.512;26.104;2023-09-07T05:53:32;28.00;64.50
46159;DHT22;31888;44.512;26.104;2023-09-07T05:55:56;28.00;64.00
46159;DHT22;31888;44.512;26.104;2023-09-07T05:58:20;28.10;63.50
46159;DHT22;31888;44.512;26.104;2023-09-07T06:00:44;28.00;64.40
46159;DHT22;31888;44.512;26.104;2023-09-07T06:03:09;27.30;64.80
46159;DHT22;31888;44.512;26.104;2023-09-07T06:05:34;27.50;65.30
46159;DHT22;31888;44.512;26.104;2023-09-07T06:08:00;28.00;64.80
46159;DHT22;31888;44.512;26.104;2023-09-07T06:10:27;28.60;63.50
46159;DHT22;31888;44.512;26.104;2023-09-07T06:12:52;29.50;62.50
46159;DHT22;31888;44.512;26.104;2023-09-07T06:15:16;29.20;62.70
46159;DHT22;31888;44.512;26.104;2023-09-07T06:17:40;28.60;62.60
46159;DHT22;31888;44.512;26.104;2023-09-07T06:20:06;28.20;64.10
46159;DHT22;31888;44.512;26.104;2023-09-07T06:22:31;28.90;63.50
46159;DHT22;31888;44.512;26.104;2023-09-07T06:24:55;29.60;62.10
46159;DHT22;31888;44.512;26.104;2023-09-07T06:27:21;29.40;62.60
46159;DHT22;31888;44.512;26.104;2023-09-07T06:29:44;28.70;62.60
46159;DHT22;31888;44.512;26.104;2023-09-07T06:32:09;29.10;62.80
46159;DHT22;31888;44.512;26.104;2023-09-07T06:34:34;28.90;62.90
46159;DHT22;31888;44.512;26.104;2023-09-07T06:36:58;29.10;62.50
46159;DHT22;31888;44.512;26.104;2023-09-07T06:39:23;29.00;63.00
46159;DHT22;31888;44.512;26.104;2023-09-07T06:41:47;28.60;63.20
46159;DHT22;31888;44.512;26.104;2023-09-07T06:44:15;28.30;64.20
46159;DHT22;31888;44.512;26.104;2023-09-07T06:46:40;28.40;63.80
46159;DHT22;31888;44.512;26.104;2023-09-07T06:49:04;28.90;63.30
46159;DHT22;31888;44.512;26.104;2023-09-07T06:51:28;29.30;62.60
46159;DHT22;31888;44.512;26.104;2023-09-07T06:53:52;30.00;62.20
46159;DHT22;31888;44.512;26.104;2023-09-07T06:56:20;30.10;61.10
46159;DHT22;31888;44.512;26.104;2023-09-07T06:58:44;29.30;61.70
46159;DHT22;31888;44.512;26.104;2023-09-07T07:01:09;29.20;62.20
46159;DHT22;31888;44.512;26.104;2023-09-07T07:03:33;29.60;61.50
46159;DHT22;31888;44.512;26.104;2023-09-07T07:05:58;29.60;60.90
46159;DHT22;31888;44.512;26.104;2023-09-07T07:08:22;29.80;61.00
46159;DHT22;31888;44.512;26.104;2023-09-07T07:10:46;29.10;61.40
46159;DHT22;31888;44.512;26.104;2023-09-07T07:13:10;29.10;61.80
46159;DHT22;31888;44.512;26.104;2023-09-07T07:15:35;28.40;62.80
46159;DHT22;31888;44.512;26.104;2023-09-07T07:18:01;29.10;61.80
46159;DHT22;31888;44.512;26.104;2023-09-07T07:20:31;29.30;61.70
46159;DHT22;31888;44.512;26.104;2023-09-07T07:22:55;29.90;61.40
46159;DHT22;31888;44.512;26.104;2023-09-07T07:25:19;29.20;61.30
46159;DHT22;31888;44.512;26.104;2023-09-07T07:27:43;29.30;61.60
46159;DHT22;31888;44.512;26.104;2023-09-07T07:30:08;30.30;60.60
46159;DHT22;31888;44.512;26.104;2023-09-07T07:32:35;30.80;59.80
46159;DHT22;31888;44.512;26.104;2023-09-07T07:35:00;31.10;59.30
46159;DHT22;31888;44.512;26.104;2023-09-07T07:37:24;29.90;60.30
46159;DHT22;31888;44.512;26.104;2023-09-07T07:39:48;30.10;59.80
46159;DHT22;31888;44.512;26.104;2023-09-07T07:42:13;30.00;60.90
46159;DHT22;31888;44.512;26.104;2023-09-07T07:44:37;30.60;60.20
46159;DHT22;31888;44.512;26.104;2023-09-07T07:47:02;30.10;60.20
46159;DHT22;31888;44.512;26.104;2023-09-07T07:49:26;30.20;60.30
46159;DHT22;31888;44.512;26.104;2023-09-07T07:51:52;30.90;59.40
46159;DHT22;31888;44.512;26.104;2023-09-07T07:54:17;31.40;59.00
46159;DHT22;31888;44.512;26.104;2023-09-07T07:56:41;30.80;59.20
46159;DHT22;31888;44.512;26.104;2023-09-07T07:59:05;29.90;59.50
46159;DHT22;31888;44.512;26.104;2023-09-07T08:01:30;29.70;60.20
46159;DHT22;31888;44.512;26.104;2023-09-07T08:03:55;30.00;60.30
46159;DHT22;31888;44.512;26.104;2023-09-07T08:06:23;30.60;59.50
46159;DHT22;31888;44.512;26.104;2023-09-07T08:08:48;31.20;58.50
46159;DHT22;31888;44.512;26.104;2023-09-07T08:11:12;31.90;57.80
46159;DHT22;31888;44.512;26.104;2023-09-07T08:13:39;31.70;57.40
46159;DHT22;31888;44.512;26.104;2023-09-07T08:16:04;31.40;57.60
46159;DHT22;31888;44.512;26.104;2023-09-07T08:18:29;30.40;58.70
46159;DHT22;31888;44.512;26.104;2023-09-07T08:20:55;29.60;60.10
46159;DHT22;31888;44.512;26.104;2023-09-07T08:23:19;30.20;59.00
46159;DHT22;31888;44.512;26.104;2023-09-07T08:25:44;29.10;60.10
46159;DHT22;31888;44.512;26.104;2023-09-07T08:28:10;29.50;60.70
46159;DHT22;31888;44.512;26.104;2023-09-07T08:30:34;29.70;59.60
46159;DHT22;31888;44.512;26.104;2023-09-07T08:32:59;30.20;59.50
46159;DHT22;31888;44.512;26.104;2023-09-07T08:35:25;30.30;59.10
46159;DHT22;31888;44.512;26.104;2023-09-07T08:37:50;29.60;59.70
46159;DHT22;31888;44.512;26.104;2023-09-07T08:40:14;28.70;59.20
46159;DHT22;31888;44.512;26.104;2023-09-07T08:42:40;27.40;60.70
46159;DHT22;31888;44.512;26.104;2023-09-07T08:45:08;26.90;62.50
46159;DHT22;31888;44.512;26.104;2023-09-07T08:47:34;26.60;63.00
46159;DHT22;31888;44.512;26.104;2023-09-07T08:49:58;26.60;63.30
46159;DHT22;31888;44.512;26.104;2023-09-07T08:52:22;26.60;63.40
46159;DHT22;31888;44.512;26.104;2023-09-07T08:54:46;26.50;64.30
46159;DHT22;31888;44.512;26.104;2023-09-07T08:57:11;26.50;63.40
46159;DHT22;31888;44.512;26.104;2023-09-07T08:59:38;26.40;63.30
46159;DHT22;31888;44.512;26.104;2023-09-07T09:02:02;26.60;63.60
46159;DHT22;31888;44.512;26.104;2023-09-07T09:04:30;26.40;62.90
46159;DHT22;31888;44.512;26.104;2023-09-07T09:06:54;26.40;63.20
46159;DHT22;31888;44.512;26.104;2023-09-07T09:09:22;26.30;63.10
46159;DHT22;31888;44.512;26.104;2023-09-07T09:11:47;26.30;63.30
46159;DHT22;31888;44.512;26.104;2023-09-07T09:14:10;26.50;63.40
46159;DHT22;31888;44.512;26.104;2023-09-07T09:16:41;26.50;63.20
46159;DHT22;31888;44.512;26.104;2023-09-07T09:19:06;26.60;63.50
46159;DHT22;31888;44.512;26.104;2023-09-07T09:21:31;26.70;63.10
46159;DHT22;31888;44.512;26.104;2023-09-07T09:23:56;27.00;62.60
46159;DHT22;31888;44.512;26.104;2023-09-07T09:26:21;27.00;62.50
46159;DHT22;31888;44.512;26.104;2023-09-07T09:28:48;27.10;62.70
46159;DHT22;31888;44.512;26.104;2023-09-07T09:31:14;27.00;62.80
46159;DHT22;31888;44.512;26.104;2023-09-07T09:33:39;26.80;62.90
46159;DHT22;31888;44.512;26.104;2023-09-07T09:36:04;26.70;63.00
46159;DHT22;31888;44.512;26.104;2023-09-07T09:38:29;26.70;63.20
46159;DHT22;31888;44.512;26.104;2023-09-07T09:40:55;26.60;62.80
46159;DHT22;31888;44.512;26.104;2023-09-07T09:43:20;26.60;63.20
46159;DHT22;31888;44.512;26.104;2023-09-07T09:45:44;26.80;63.20
46159;DHT22;31888;44.512;26.104;2023-09-07T09:48:09;26.90;62.70
46159;DHT22;31888;44.512;26.104;2023-09-07T09:50:34;27.00;63.00
46159;DHT22;31888;44.512;26.104;2023-09-07T09:53:01;27.00;63.30
46159;DHT22;31888;44.512;26.104;2023-09-07T09:55:26;27.10;62.80
46159;DHT22;31888;44.512;26.104;2023-09-07T09:57:50;27.10;62.90
46159;DHT22;31888;44.512;26.104;2023-09-07T10:00:15;26.90;63.20
46159;DHT22;31888;44.512;26.104;2023-09-07T10:02:51;26.90;63.10
46159;DHT22;31888;44.512;26.104;2023-09-07T10:05:18;27.00;63.20
46159;DHT22;31888;44.512;26.104;2023-09-07T10:07:49;27.10;63.50
46159;DHT22;31888;44.512;26.104;2023-09-07T10:10:13;27.10;63.10
46159;DHT22;31888;44.512;26.104;2023-09-07T10:12:41;27.00;63.20
46159;DHT22;31888;44.512;26.104;2023-09-07T10:15:05;27.00;63.00
46159;DHT22;31888;44.512;26.104;2023-09-07T10:17:29;27.00;62.30
46159;DHT22;31888;44.512;26.104;2023-09-07T10:20:02;27.00;62.90
46159;DHT22;31888;44.512;26.104;2023-09-07T10:22:28;27.00;63.20
46159;DHT22;31888;44.512;26.104;2023-09-07T10:24:59;27.00;62.70
46159;DHT22;31888;44.512;26.104;2023-09-07T10:27:23;27.10;62.50
46159;DHT22;31888;44.512;26.104;2023-09-07T10:29:50;27.30;62.70
46159;DHT22;31888;44.512;26.104;2023-09-07T10:32:18;27.50;62.20
46159;DHT22;31888;44.512;26.104;2023-09-07T10:34:42;27.50;62.20
46159;DHT22;31888;44.512;26.104;2023-09-07T10:37:07;27.60;62.40
46159;DHT22;31888;44.512;26.104;2023-09-07T10:39:32;27.30;62.20
46159;DHT22;31888;44.512;26.104;2023-09-07T10:42:02;27.10;62.40
46159;DHT22;31888;44.512;26.104;2023-09-07T10:44:27;27.20;63.10
46159;DHT22;31888;44.512;26.104;2023-09-07T10:46:51;27.10;63.10
46159;DHT22;31888;44.512;26.104;2023-09-07T10:49:18;27.20;62.80
46159;DHT22;31888;44.512;26.104;2023-09-07T10:51:44;27.40;62.60
46159;DHT22;31888;44.512;26.104;2023-09-07T10:54:15;27.60;62.60
46159;DHT22;31888;44.512;26.104;2023-09-07T10:56:40;27.60;62.00
46159;DHT22;31888;44.512;26.104;2023-09-07T10:59:05;27.50;62.10
46159;DHT22;31888;44.512;26.104;2023-09-07T11:01:31;27.40;62.30
46159;DHT22;31888;44.512;26.104;2023-09-07T11:03:55;27.60;62.10
46159;DHT22;31888;44.512;26.104;2023-09-07T11:06:35;27.60;62.70
46159;DHT22;31888;44.512;26.104;2023-09-07T11:08:59;27.30;62.20
46159;DHT22;31888;44.512;26.104;2023-09-07T11:11:24;27.40;61.70
46159;DHT22;31888;44.512;26.104;2023-09-07T11:13:48;27.60;62.10
46159;DHT22;31888;44.512;26.104;2023-09-07T11:16:13;27.70;61.80
46159;DHT22;31888;44.512;26.104;2023-09-07T11:18:38;27.80;62.30
46159;DHT22;31888;44.512;26.104;2023-09-07T11:21:03;28.00;61.70
46159;DHT22;31888;44.512;26.104;2023-09-07T11:23:30;27.80;61.80
46159;DHT22;31888;44.512;26.104;2023-09-07T11:26:00;27.70;62.20
46159;DHT22;31888;44.512;26.104;2023-09-07T11:28:30;27.50;62.40
46159;DHT22;31888;44.512;26.104;2023-09-07T11:30:54;27.50;62.40
46159;DHT22;31888;44.512;26.104;2023-09-07T11:33:21;27.60;61.90
46159;DHT22;31888;44.512;26.104;2023-09-07T11:35:45;27.40;61.80
46159;DHT22;31888;44.512;26.104;2023-09-07T11:38:13;27.40;62.50
46159;DHT22;31888;44.512;26.104;2023-09-07T11:40:37;27.50;62.80
46159;DHT22;31888;44.512;26.104;2023-09-07T11:43:01;27.50;62.30
46159;DHT22;31888;44.512;26.104;2023-09-07T11:45:25;27.30;62.60
46159;DHT22;31888;44.512;26.104;2023-09-07T11:47:50;27.20;62.60
46159;DHT22;31888;44.512;26.104;2023-09-07T11:50:18;27.20;63.00
46159;DHT22;31888;44.512;26.104;2023-09-07T11:52:43;27.40;62.60
46159;DHT22;31888;44.512;26.104;2023-09-07T11:55:07;27.10;62.30
46159;DHT22;31888;44.512;26.104;2023-09-07T11:57:32;27.10;63.00
46159;DHT22;31888;44.512;26.104;2023-09-07T11:59:56;27.30;62.60
46159;DHT22;31888;44.512;26.104;2023-09-07T12:02:20;27.40;61.90
46159;DHT22;31888;44.512;26.104;2023-09-07T12:04:44;27.10;62.00
46159;DHT22;31888;44.512;26.104;2023-09-07T12:07:10;27.10;61.90
46159;DHT22;31888;44.512;26.104;2023-09-07T12:09:34;27.10;62.30
46159;DHT22;31888;44.512;26.104;2023-09-07T12:11:58;27.20;62.20
46159;DHT22;31888;44.512;26.104;2023-09-07T12:14:22;27.10;62.00
46159;DHT22;31888;44.512;26.104;2023-09-07T12:16:46;27.20;61.80
46159;DHT22;31888;44.512;26.104;2023-09-07T12:19:10;27.30;62.40
46159;DHT22;31888;44.512;26.104;2023-09-07T12:21:34;27.20;61.70
46159;DHT22;31888;44.512;26.104;2023-09-07T12:23:59;27.20;61.10
46159;DHT22;31888;44.512;26.104;2023-09-07T12:26:23;27.20;61.60
46159;DHT22;31888;44.512;26.104;2023-09-07T12:28:47;27.30;61.10
46159;DHT22;31888;44.512;26.104;2023-09-07T12:31:11;27.40;60.90
46159;DHT22;31888;44.512;26.104;2023-09-07T12:33:36;27.10;60.30
46159;DHT22;31888;44.512;26.104;2023-09-07T12:36:00;27.10;59.90
46159;DHT22;31888;44.512;26.104;2023-09-07T12:38:24;27.20;60.10
46159;DHT22;31888;44.512;26.104;2023-09-07T12:40:52;27.20;59.70
46159;DHT22;31888;44.512;26.104;2023-09-07T12:43:16;27.10;60.20
46159;DHT22;31888;44.512;26.104;2023-09-07T12:45:41;27.20;60.10
46159;DHT22;31888;44.512;26.104;2023-09-07T12:48:06;27.30;60.10
46159;DHT22;31888;44.512;26.104;2023-09-07T12:50:30;27.40;59.70
46159;DHT22;31888;44.512;26.104;2023-09-07T12:52:54;27.40;59.10
46159;DHT22;31888;44.512;26.104;2023-09-07T12:55:18;27.40;59.20
46159;DHT22;31888;44.512;26.104;2023-09-07T12:57:43;27.40;58.90
46159;DHT22;31888;44.512;26.104;2023-09-07T13:00:08;27.30;58.90
46159;DHT22;31888;44.512;26.104;2023-09-07T13:02:33;27.40;59.10
46159;DHT22;31888;44.512;26.104;2023-09-07T13:04:57;27.30;58.70
46159;DHT22;31888;44.512;26.104;2023-09-07T13:07:21;27.40;58.70
46159;DHT22;31888;44.512;26.104;2023-09-07T13:09:45;27.40;58.70
46159;DHT22;31888;44.512;26.104;2023-09-07T13:12:09;27.30;58.80
46159;DHT22;31888;44.512;26.104;2023-09-07T13:14:34;27.20;58.80
46159;DHT22;31888;44.512;26.104;2023-09-07T13:16:58;27.20;58.60
46159;DHT22;31888;44.512;26.104;2023-09-07T13:19:21;27.40;59.10
46159;DHT22;31888;44.512;26.104;2023-09-07T13:21:45;27.30;57.70
46159;DHT22;31888;44.512;26.104;2023-09-07T13:24:09;27.20;58.70
46159;DHT22;31888;44.512;26.104;2023-09-07T13:26:33;27.20;58.50
46159;DHT22;31888;44.512;26.104;2023-09-07T13:28:57;27.10;58.80
46159;DHT22;31888;44.512;26.104;2023-09-07T13:31:23;27.10;59.20
46159;DHT22;31888;44.512;26.104;2023-09-07T13:33:47;27.30;59.80
46159;DHT22;31888;44.512;26.104;2023-09-07T13:36:11;27.40;58.70
46159;DHT22;31888;44.512;26.104;2023-09-07T13:38:34;27.30;58.90
46159;DHT22;31888;44.512;26.104;2023-09-07T13:40:58;27.30;58.70
46159;DHT22;31888;44.512;26.104;2023-09-07T13:43:22;27.30;59.20
46159;DHT22;31888;44.512;26.104;2023-09-07T13:45:46;27.20;58.80
46159;DHT22;31888;44.512;26.104;2023-09-07T13:48:12;27.20;59.20
46159;DHT22;31888;44.512;26.104;2023-09-07T13:50:36;27.10;59.20
46159;DHT22;31888;44.512;26.104;2023-09-07T13:53:00;27.20;59.30
46159;DHT22;31888;44.512;26.104;2023-09-07T13:55:24;27.10;59.10
46159;DHT22;31888;44.512;26.104;2023-09-07T13:57:48;27.10;59.50
46159;DHT22;31888;44.512;26.104;2023-09-07T14:00:12;27.10;58.90
46159;DHT22;31888;44.512;26.104;2023-09-07T14:02:36;27.10;58.70
46159;DHT22;31888;44.512;26.104;2023-09-07T14:05:02;27.10;58.70
46159;DHT22;31888;44.512;26.104;2023-09-07T14:07:27;27.10;58.60
46159;DHT22;31888;44.512;26.104;2023-09-07T14:09:51;27.10;59.10
46159;DHT22;31888;44.512;26.104;2023-09-07T14:12:15;27.00;59.40
46159;DHT22;31888;44.512;26.104;2023-09-07T14:14:39;27.00;59.90
46159;DHT22;31888;44.512;26.104;2023-09-07T14:17:03;27.00;60.40
46159;DHT22;31888;44.512;26.104;2023-09-07T14:19:29;27.00;60.40
46159;DHT22;31888;44.512;26.104;2023-09-07T14:21:55;26.90;60.10
46159;DHT22;31888;44.512;26.104;2023-09-07T14:24:19;26.90;59.80
46159;DHT22;31888;44.512;26.104;2023-09-07T14:26:43;27.00;59.90
46159;DHT22;31888;44.512;26.104;2023-09-07T14:29:06;27.00;59.70
46159;DHT22;31888;44.512;26.104;2023-09-07T14:31:30;27.00;59.80
46159;DHT22;31888;44.512;26.104;2023-09-07T14:33:54;27.00;58.80
46159;DHT22;31888;44.512;26.104;2023-09-07T14:36:18;26.90;59.40
46159;DHT22;31888;44.512;26.104;2023-09-07T14:38:43;27.00;60.40
46159;DHT22;31888;44.512;26.104;2023-09-07T14:41:07;27.00;59.90
46159;DHT22;31888;44.512;26.104;2023-09-07T14:43:34;26.90;59.30
46159;DHT22;31888;44.512;26.104;2023-09-07T14:45:57;26.80;59.00
46159;DHT22;31888;44.512;26.104;2023-09-07T14:48:21;26.80;59.70
46159;DHT22;31888;44.512;26.104;2023-09-07T14:50:45;26.90;60.40
46159;DHT22;31888;44.512;26.104;2023-09-07T14:53:09;26.80;60.50
46159;DHT22;31888;44.512;26.104;2023-09-07T14:55:35;26.80;60.50
46159;DHT22;31888;44.512;26.104;2023-09-07T14:57:59;26.80;60.10
46159;DHT22;31888;44.512;26.104;2023-09-07T15:00:23;26.80;60.00